sensor_id;sensor_type;location;lat;lon;timestamp;P1;durP1;ratioP1;P2;durP2;ratioP2
53549;SDS011;67273;52.914;-0.982;2023-04-09T00:01:12;1.77;;;1.52;;
53549;SDS011;67273;52.914;-0.982;2023-04-09T00:03:38;1.90;;;1.40;;
53549;SDS011;67273;52.914;-0.982;2023-04-09T00:06:04;1.48;;;1.30;;
53549;SDS011;67273;52.914;-0.982;2023-04-09T00:08:30;2.38;;;1.60;;
53549;SDS011;67273;52.914;-0.982;2023-04-09T00:10:56;1.65;;;1.40;;
53549;SDS011;67273;52.914;-0.982;2023-04-09T00:13:23;2.38;;;1.63;;
53549;SDS011;67273;52.914;-0.982;2023-04-09T00:15:49;1.95;;;1.30;;
53549;SDS011;67273;52.914;-0.982;2023-04-09T00:18:16;1.90;;;1.25;;
53549;SDS011;67273;52.914;-0.982;2023-04-09T00:20:42;1.38;;;1.27;;
53549;SDS011;67273;52.914;-0.982;2023-04-09T00:23:08;1.40;;;1.30;;
53549;SDS011;67273;52.914;-0.982;2023-04-09T00:25:34;1.50;;;1.40;;
53549;SDS011;67273;52.914;-0.982;2023-04-09T00:27:59;2.38;;;1.63;;
53549;SDS011;67273;52.914;-0.982;2023-04-09T00:30:27;2.80;;;1.40;;
53549;SDS011;67273;52.914;-0.982;2023-04-09T00:32:53;1.70;;;1.48;;
53549;SDS011;67273;52.914;-0.982;2023-04-09T00:35:20;1.50;;;1.40;;
53549;SDS011;67273;52.914;-0.982;2023-04-09T00:37:45;2.30;;;1.38;;
53549;SDS011;67273;52.914;-0.982;2023-04-09T00:40:11;1.90;;;1.40;;
53549;SDS011;67273;52.914;-0.982;2023-04-09T00:42:37;1.95;;;1.40;;
53549;SDS011;67273;52.914;-0.982;2023-04-09T00:45:03;1.52;;;1.27;;
53549;SDS011;67273;52.914;-0.982;2023-04-09T00:47:30;2.20;;;1.50;;
53549;SDS011;67273;52.914;-0.982;2023-04-09T00:49:56;2.05;;;1.58;;
53549;SDS011;67273;52.914;-0.982;2023-04-09T00:52:24;1.40;;;1.30;;
53549;SDS011;67273;52.914;-0.982;2023-04-09T00:54:50;1.75;;;1.40;;
53549;SDS011;67273;52.914;-0.982;2023-04-09T00:57:17;2.17;;;1.40;;
53549;SDS011;67273;52.914;-0.982;2023-04-09T00:59:42;1.60;;;1.42;;
53549;SDS011;67273;52.914;-0.982;2023-04-09T01:02:09;1.98;;;1.50;;
53549;SDS011;67273;52.914;-0.982;2023-04-09T01:04:34;2.33;;;1.70;;
53549;SDS011;67273;52.914;-0.982;2023-04-09T01:07:03;1.67;;;1.38;;
53549;SDS011;67273;52.914;-0.982;2023-04-09T01:09:38;1.60;;;1.50;;
53549;SDS011;67273;52.914;-0.982;2023-04-09T01:12:08;1.50;;;1.40;;
53549;SDS011;67273;52.914;-0.982;2023-04-09T01:14:38;2.10;;;1.60;;
53549;SDS011;67273;52.914;-0.982;2023-04-09T01:17:14;2.15;;;1.50;;
53549;SDS011;67273;52.914;-0.982;2023-04-09T01:19:46;1.50;;;1.40;;
53549;SDS011;67273;52.914;-0.982;2023-04-09T01:22:26;1.52;;;1.42;;
53549;SDS011;67273;52.914;-0.982;2023-04-09T01:25:02;2.47;;;1.65;;
53549;SDS011;67273;52.914;-0.982;2023-04-09T01:27:43;1.80;;;1.70;;
53549;SDS011;67273;52.914;-0.982;2023-04-09T01:30:21;2.13;;;1.60;;
53549;SDS011;67273;52.914;-0.982;2023-04-09T01:32:47;1.50;;;1.40;;
53549;SDS011;67273;52.914;-0.982;2023-04-09T01:35:14;1.63;;;1.52;;
53549;SDS011;67273;52.914;-0.982;2023-04-09T01:37:40;1.67;;;1.40;;
53549;SDS011;67273;52.914;-0.982;2023-04-09T01:40:06;1.50;;;1.40;;
53549;SDS011;67273;52.914;-0.982;2023-04-09T01:42:33;1.45;;;1.35;;
53549;SDS011;67273;52.914;-0.982;2023-04-09T01:45:01;1.50;;;1.40;;
53549;SDS011;67273;52.914;-0.982;2023-04-09T01:47:28;1.63;;;1.40;;
53549;SDS011;67273;52.914;-0.982;2023-04-09T01:49:54;1.95;;;1.58;;
53549;SDS011;67273;52.914;-0.982;2023-04-09T01:52:21;1.77;;;1.60;;
53549;SDS011;67273;52.914;-0.982;2023-04-09T01:54:46;1.83;;;1.50;;
53549;SDS011;67273;52.914;-0.982;2023-04-09T01:57:12;1.85;;;1.52;;
53549;SDS011;67273;52.914;-0.982;2023-04-09T01:59:38;1.90;;;1.50;;
53549;SDS011;67273;52.914;-0.982;2023-04-09T02:02:05;1.85;;;1.55;;
53549;SDS011;67273;52.914;-0.982;2023-04-09T02:04:38;1.80;;;1.40;;
53549;SDS011;67273;52.914;-0.982;2023-04-09T02:07:07;1.60;;;1.50;;
53549;SDS011;67273;52.914;-0.982;2023-04-09T02:09:38;2.95;;;1.80;;
53549;SDS011;67273;52.914;-0.982;2023-04-09T02:12:06;1.63;;;1.40;;
53549;SDS011;67273;52.914;-0.982;2023-04-09T02:14:37;1.40;;;1.30;;
53549;SDS011;67273;52.914;-0.982;2023-04-09T02:17:04;1.70;;;1.60;;
53549;SDS011;67273;52.914;-0.982;2023-04-09T02:19:41;1.60;;;1.50;;
53549;SDS011;67273;52.914;-0.982;2023-04-09T02:22:08;1.52;;;1.40;;
53549;SDS011;67273;52.914;-0.982;2023-04-09T02:24:35;1.77;;;1.67;;
53549;SDS011;67273;52.914;-0.982;2023-04-09T02:27:01;1.63;;;1.52;;
53549;SDS011;67273;52.914;-0.982;2023-04-09T02:29:27;1.40;;;1.30;;
53549;SDS011;67273;52.914;-0.982;2023-04-09T02:31:52;1.88;;;1.65;;
53549;SDS011;67273;52.914;-0.982;2023-04-09T02:34:21;1.50;;;1.40;;
53549;SDS011;67273;52.914;-0.982;2023-04-09T02:36:50;1.50;;;1.40;;
53549;SDS011;67273;52.914;-0.982;2023-04-09T02:39:16;1.67;;;1.58;;
53549;SDS011;67273;52.914;-0.982;2023-04-09T02:41:42;1.60;;;1.50;;
53549;SDS011;67273;52.914;-0.982;2023-04-09T02:44:08;1.65;;;1.40;;
53549;SDS011;67273;52.914;-0.982;2023-04-09T02:46:34;1.60;;;1.50;;
53549;SDS011;67273;52.914;-0.982;2023-04-09T02:49:02;1.58;;;1.45;;
53549;SDS011;67273;52.914;-0.982;2023-04-09T02:51:28;1.45;;;1.33;;
53549;SDS011;67273;52.914;-0.982;2023-04-09T02:53:55;1.58;;;1.48;;
53549;SDS011;67273;52.914;-0.982;2023-04-09T02:56:21;1.55;;;1.45;;
53549;SDS011;67273;52.914;-0.982;2023-04-09T02:58:46;1.50;;;1.40;;
53549;SDS011;67273;52.914;-0.982;2023-04-09T03:01:14;1.88;;;1.50;;
53549;SDS011;67273;52.914;-0.982;2023-04-09T03:03:40;1.75;;;1.58;;
53549;SDS011;67273;52.914;-0.982;2023-04-09T03:06:07;1.77;;;1.40;;
53549;SDS011;67273;52.914;-0.982;2023-04-09T03:08:32;1.48;;;1.38;;
53549;SDS011;67273;52.914;-0.982;2023-04-09T03:10:59;1.50;;;1.40;;
53549;SDS011;67273;52.914;-0.982;2023-04-09T03:13:26;1.70;;;1.50;;
53549;SDS011;67273;52.914;-0.982;2023-04-09T03:15:52;1.58;;;1.48;;
53549;SDS011;67273;52.914;-0.982;2023-04-09T03:18:17;1.48;;;1.38;;
53549;SDS011;67273;52.914;-0.982;2023-04-09T03:20:43;1.48;;;1.38;;
53549;SDS011;67273;52.914;-0.982;2023-04-09T03:23:11;1.80;;;1.70;;
53549;SDS011;67273;52.914;-0.982;2023-04-09T03:25:42;1.50;;;1.40;;
53549;SDS011;67273;52.914;-0.982;2023-04-09T03:28:15;1.67;;;1.52;;
53549;SDS011;67273;52.914;-0.982;2023-04-09T03:30:45;1.60;;;1.50;;
53549;SDS011;67273;52.914;-0.982;2023-04-09T03:33:12;1.52;;;1.42;;
53549;SDS011;67273;52.914;-0.982;2023-04-09T03:35:58;1.70;;;1.60;;
53549;SDS011;67273;52.914;-0.982;2023-04-09T03:38:42;1.65;;;1.42;;
53549;SDS011;67273;52.914;-0.982;2023-04-09T03:41:20;1.63;;;1.52;;
53549;SDS011;67273;52.914;-0.982;2023-04-09T03:43:47;1.73;;;1.60;;
53549;SDS011;67273;52.914;-0.982;2023-04-09T03:46:17;1.73;;;1.63;;
53549;SDS011;67273;52.914;-0.982;2023-04-09T03:48:46;2.08;;;1.77;;
53549;SDS011;67273;52.914;-0.982;2023-04-09T03:51:12;1.83;;;1.73;;
53549;SDS011;67273;52.914;-0.982;2023-04-09T03:53:43;1.90;;;1.80;;
53549;SDS011;67273;52.914;-0.982;2023-04-09T03:56:09;1.90;;;1.70;;
53549;SDS011;67273;52.914;-0.982;2023-04-09T03:58:36;3.15;;;2.20;;
53549;SDS011;67273;52.914;-0.982;2023-04-09T04:01:03;2.33;;;1.88;;
53549;SDS011;67273;52.914;-0.982;2023-04-09T04:03:37;2.65;;;2.13;;
53549;SDS011;67273;52.914;-0.982;2023-04-09T04:06:19;2.30;;;2.03;;
53549;SDS011;67273;52.914;-0.982;2023-04-09T04:08:53;3.08;;;2.25;;
53549;SDS011;67273;52.914;-0.982;2023-04-09T04:11:24;2.47;;;1.90;;
53549;SDS011;67273;52.914;-0.982;2023-04-09T04:13:53;2.55;;;1.83;;
53549;SDS011;67273;52.914;-0.982;2023-04-09T04:16:22;2.40;;;2.17;;
53549;SDS011;67273;52.914;-0.982;2023-04-09T04:18:48;1.90;;;1.80;;
53549;SDS011;67273;52.914;-0.982;2023-04-09T04:21:14;2.78;;;2.28;;
53549;SDS011;67273;52.914;-0.982;2023-04-09T04:23:45;2.30;;;2.10;;
53549;SDS011;67273;52.914;-0.982;2023-04-09T04:26:18;2.42;;;2.10;;
53549;SDS011;67273;52.914;-0.982;2023-04-09T04:28:44;2.28;;;2.05;;
53549;SDS011;67273;52.914;-0.982;2023-04-09T04:31:16;2.05;;;1.80;;
53549;SDS011;67273;52.914;-0.982;2023-04-09T04:33:43;2.63;;;2.20;;
53549;SDS011;67273;52.914;-0.982;2023-04-09T04:36:12;2.47;;;1.90;;
53549;SDS011;67273;52.914;-0.982;2023-04-09T04:38:48;2.65;;;2.15;;
53549;SDS011;67273;52.914;-0.982;2023-04-09T04:41:20;2.28;;;2.08;;
53549;SDS011;67273;52.914;-0.982;2023-04-09T04:43:52;2.53;;;2.30;;
53549;SDS011;67273;52.914;-0.982;2023-04-09T04:46:21;2.53;;;2.17;;
53549;SDS011;67273;52.914;-0.982;2023-04-09T04:48:48;2.38;;;2.10;;
53549;SDS011;67273;52.914;-0.982;2023-04-09T04:51:14;2.20;;;2.00;;
53549;SDS011;67273;52.914;-0.982;2023-04-09T04:53:46;3.30;;;2.55;;
53549;SDS011;67273;52.914;-0.982;2023-04-09T04:56:13;2.40;;;2.20;;
53549;SDS011;67273;52.914;-0.982;2023-04-09T04:58:47;3.05;;;2.53;;
53549;SDS011;67273;52.914;-0.982;2023-04-09T05:01:15;3.33;;;2.60;;
53549;SDS011;67273;52.914;-0.982;2023-04-09T05:03:42;3.20;;;2.22;;
53549;SDS011;67273;52.914;-0.982;2023-04-09T05:06:28;2.50;;;2.20;;
53549;SDS011;67273;52.914;-0.982;2023-04-09T05:08:56;3.05;;;2.40;;
53549;SDS011;67273;52.914;-0.982;2023-04-09T05:11:24;2.78;;;2.50;;
53549;SDS011;67273;52.914;-0.982;2023-04-09T05:13:50;2.65;;;2.33;;
53549;SDS011;67273;52.914;-0.982;2023-04-09T05:16:16;2.90;;;2.60;;
53549;SDS011;67273;52.914;-0.982;2023-04-09T05:18:45;3.03;;;2.63;;
53549;SDS011;67273;52.914;-0.982;2023-04-09T05:21:10;2.83;;;2.30;;
53549;SDS011;67273;52.914;-0.982;2023-04-09T05:23:40;2.53;;;2.33;;
53549;SDS011;67273;52.914;-0.982;2023-04-09T05:26:07;2.85;;;2.50;;
53549;SDS011;67273;52.914;-0.982;2023-04-09T05:28:43;2.80;;;2.60;;
53549;SDS011;67273;52.914;-0.982;2023-04-09T05:31:16;3.05;;;2.60;;
53549;SDS011;67273;52.914;-0.982;2023-04-09T05:33:50;2.92;;;2.58;;
53549;SDS011;67273;52.914;-0.982;2023-04-09T05:36:22;3.40;;;2.95;;
53549;SDS011;67273;52.914;-0.982;2023-04-09T05:38:49;2.97;;;2.50;;
53549;SDS011;67273;52.914;-0.982;2023-04-09T05:41:15;2.50;;;2.25;;
53549;SDS011;67273;52.914;-0.982;2023-04-09T05:43:52;2.83;;;2.50;;
53549;SDS011;67273;52.914;-0.982;2023-04-09T05:46:18;2.97;;;2.70;;
53549;SDS011;67273;52.914;-0.982;2023-04-09T05:48:45;2.95;;;2.60;;
53549;SDS011;67273;52.914;-0.982;2023-04-09T05:51:11;3.17;;;2.60;;
53549;SDS011;67273;52.914;-0.982;2023-04-09T05:53:37;4.18;;;2.83;;
53549;SDS011;67273;52.914;-0.982;2023-04-09T05:56:13;2.70;;;2.50;;
53549;SDS011;67273;52.914;-0.982;2023-04-09T05:58:46;3.67;;;2.88;;
53549;SDS011;67273;52.914;-0.982;2023-04-09T06:01:12;3.80;;;2.78;;
53549;SDS011;67273;52.914;-0.982;2023-04-09T06:03:38;3.15;;;2.72;;
53549;SDS011;67273;52.914;-0.982;2023-04-09T06:06:04;3.65;;;2.70;;
53549;SDS011;67273;52.914;-0.982;2023-04-09T06:08:30;2.92;;;2.60;;
53549;SDS011;67273;52.914;-0.982;2023-04-09T06:10:57;2.63;;;2.42;;
53549;SDS011;67273;52.914;-0.982;2023-04-09T06:13:24;3.13;;;2.80;;
53549;SDS011;67273;52.914;-0.982;2023-04-09T06:15:50;4.00;;;2.63;;
53549;SDS011;67273;52.914;-0.982;2023-04-09T06:18:16;2.65;;;2.45;;
53549;SDS011;67273;52.914;-0.982;2023-04-09T06:20:42;3.50;;;2.70;;
53549;SDS011;67273;52.914;-0.982;2023-04-09T06:23:08;3.25;;;2.58;;
53549;SDS011;67273;52.914;-0.982;2023-04-09T06:25:34;3.10;;;2.80;;
53549;SDS011;67273;52.914;-0.982;2023-04-09T06:28:00;3.50;;;2.90;;
53549;SDS011;67273;52.914;-0.982;2023-04-09T06:30:28;3.80;;;2.85;;
53549;SDS011;67273;52.914;-0.982;2023-04-09T06:32:56;3.05;;;2.70;;
53549;SDS011;67273;52.914;-0.982;2023-04-09T06:35:22;3.55;;;2.80;;
53549;SDS011;67273;52.914;-0.982;2023-04-09T06:37:47;4.50;;;3.15;;
53549;SDS011;67273;52.914;-0.982;2023-04-09T06:40:13;3.35;;;2.83;;
53549;SDS011;67273;52.914;-0.982;2023-04-09T06:42:39;2.78;;;2.40;;
53549;SDS011;67273;52.914;-0.982;2023-04-09T06:45:15;3.58;;;2.80;;
53549;SDS011;67273;52.914;-0.982;2023-04-09T06:47:42;3.88;;;2.95;;
53549;SDS011;67273;52.914;-0.982;2023-04-09T06:50:08;2.85;;;2.45;;
53549;SDS011;67273;52.914;-0.982;2023-04-09T06:52:34;3.33;;;2.67;;
53549;SDS011;67273;52.914;-0.982;2023-04-09T06:55:00;3.30;;;2.80;;
53549;SDS011;67273;52.914;-0.982;2023-04-09T06:57:26;3.17;;;2.80;;
53549;SDS011;67273;52.914;-0.982;2023-04-09T06:59:52;2.92;;;2.55;;
53549;SDS011;67273;52.914;-0.982;2023-04-09T07:02:17;3.17;;;2.88;;
53549;SDS011;67273;52.914;-0.982;2023-04-09T07:04:44;3.88;;;2.40;;
53549;SDS011;67273;52.914;-0.982;2023-04-09T07:07:11;5.40;;;2.97;;
53549;SDS011;67273;52.914;-0.982;2023-04-09T07:09:37;3.28;;;2.90;;
53549;SDS011;67273;52.914;-0.982;2023-04-09T07:12:03;6.22;;;2.80;;
53549;SDS011;67273;52.914;-0.982;2023-04-09T07:14:29;2.95;;;2.42;;
53549;SDS011;67273;52.914;-0.982;2023-04-09T07:16:54;3.90;;;2.80;;
53549;SDS011;67273;52.914;-0.982;2023-04-09T07:19:20;5.03;;;2.65;;
53549;SDS011;67273;52.914;-0.982;2023-04-09T07:21:47;3.63;;;3.00;;
53549;SDS011;67273;52.914;-0.982;2023-04-09T07:24:13;2.78;;;2.53;;
53549;SDS011;67273;52.914;-0.982;2023-04-09T07:26:38;3.20;;;2.45;;
53549;SDS011;67273;52.914;-0.982;2023-04-09T07:29:04;3.28;;;2.90;;
53549;SDS011;67273;52.914;-0.982;2023-04-09T07:31:30;2.85;;;2.50;;
53549;SDS011;67273;52.914;-0.982;2023-04-09T07:33:56;3.60;;;2.97;;
53549;SDS011;67273;52.914;-0.982;2023-04-09T07:36:22;3.42;;;2.97;;
53549;SDS011;67273;52.914;-0.982;2023-04-09T07:38:49;3.17;;;2.63;;
53549;SDS011;67273;52.914;-0.982;2023-04-09T07:41:15;3.47;;;2.80;;
53549;SDS011;67273;52.914;-0.982;2023-04-09T07:43:41;3.30;;;2.70;;
53549;SDS011;67273;52.914;-0.982;2023-04-09T07:46:07;3.50;;;2.80;;
53549;SDS011;67273;52.914;-0.982;2023-04-09T07:48:32;3.67;;;2.85;;
53549;SDS011;67273;52.914;-0.982;2023-04-09T07:50:58;3.53;;;2.60;;
53549;SDS011;67273;52.914;-0.982;2023-04-09T07:53:24;3.72;;;3.00;;
53549;SDS011;67273;52.914;-0.982;2023-04-09T07:55:51;3.17;;;2.80;;
53549;SDS011;67273;52.914;-0.982;2023-04-09T07:58:17;3.78;;;2.80;;
53549;SDS011;67273;52.914;-0.982;2023-04-09T08:00:43;4.15;;;3.00;;
53549;SDS011;67273;52.914;-0.982;2023-04-09T08:03:09;7.80;;;3.15;;
53549;SDS011;67273;52.914;-0.982;2023-04-09T08:05:34;6.20;;;2.88;;
53549;SDS011;67273;52.914;-0.982;2023-04-09T08:08:02;4.97;;;3.05;;
53549;SDS011;67273;52.914;-0.982;2023-04-09T08:10:29;7.53;;;2.63;;
53549;SDS011;67273;52.914;-0.982;2023-04-09T08:12:56;6.95;;;3.03;;
53549;SDS011;67273;52.914;-0.982;2023-04-09T08:15:21;8.23;;;3.00;;
53549;SDS011;67273;52.914;-0.982;2023-04-09T08:17:47;4.47;;;2.92;;
53549;SDS011;67273;52.914;-0.982;2023-04-09T08:20:13;6.53;;;2.60;;
53549;SDS011;67273;52.914;-0.982;2023-04-09T08:22:41;3.70;;;2.88;;
53549;SDS011;67273;52.914;-0.982;2023-04-09T08:25:07;5.28;;;2.60;;
53549;SDS011;67273;52.914;-0.982;2023-04-09T08:27:33;6.03;;;2.67;;
53549;SDS011;67273;52.914;-0.982;2023-04-09T08:30:01;3.83;;;2.63;;
53549;SDS011;67273;52.914;-0.982;2023-04-09T08:32:28;5.55;;;2.70;;
53549;SDS011;67273;52.914;-0.982;2023-04-09T08:34:53;3.65;;;2.65;;
53549;SDS011;67273;52.914;-0.982;2023-04-09T08:37:19;4.50;;;2.80;;
53549;SDS011;67273;52.914;-0.982;2023-04-09T08:39:45;5.50;;;2.90;;
53549;SDS011;67273;52.914;-0.982;2023-04-09T08:42:10;3.38;;;2.65;;
53549;SDS011;67273;52.914;-0.982;2023-04-09T08:44:38;3.15;;;2.70;;
53549;SDS011;67273;52.914;-0.982;2023-04-09T08:47:08;4.43;;;2.97;;
53549;SDS011;67273;52.914;-0.982;2023-04-09T08:49:37;7.30;;;3.22;;
53549;SDS011;67273;52.914;-0.982;2023-04-09T08:52:04;4.13;;;3.00;;
53549;SDS011;67273;52.914;-0.982;2023-04-09T08:54:30;3.58;;;2.75;;
53549;SDS011;67273;52.914;-0.982;2023-04-09T08:56:57;6.07;;;3.58;;
53549;SDS011;67273;52.914;-0.982;2023-04-09T08:59:23;4.90;;;3.30;;
53549;SDS011;67273;52.914;-0.982;2023-04-09T09:01:49;7.20;;;3.45;;
53549;SDS011;67273;52.914;-0.982;2023-04-09T09:04:32;4.07;;;3.20;;
53549;SDS011;67273;52.914;-0.982;2023-04-09T09:07:08;4.82;;;3.47;;
53549;SDS011;67273;52.914;-0.982;2023-04-09T09:09:34;4.40;;;3.08;;
53549;SDS011;67273;52.914;-0.982;2023-04-09T09:12:28;4.10;;;2.80;;
53549;SDS011;67273;52.914;-0.982;2023-04-09T09:14:58;4.32;;;3.00;;
53549;SDS011;67273;52.914;-0.982;2023-04-09T09:17:23;4.68;;;2.90;;
53549;SDS011;67273;52.914;-0.982;2023-04-09T09:19:51;5.53;;;3.03;;
53549;SDS011;67273;52.914;-0.982;2023-04-09T09:22:16;4.63;;;2.75;;
53549;SDS011;67273;52.914;-0.982;2023-04-09T09:24:45;4.45;;;3.15;;
53549;SDS011;67273;52.914;-0.982;2023-04-09T09:27:29;3.63;;;2.77;;
53549;SDS011;67273;52.914;-0.982;2023-04-09T09:29:56;3.17;;;2.70;;
53549;SDS011;67273;52.914;-0.982;2023-04-09T09:32:22;3.92;;;3.10;;
53549;SDS011;67273;52.914;-0.982;2023-04-09T09:34:57;3.72;;;2.92;;
53549;SDS011;67273;52.914;-0.982;2023-04-09T09:37:25;5.32;;;2.78;;
53549;SDS011;67273;52.914;-0.982;2023-04-09T09:39:54;3.63;;;2.80;;
53549;SDS011;67273;52.914;-0.982;2023-04-09T09:42:20;3.15;;;2.70;;
53549;SDS011;67273;52.914;-0.982;2023-04-09T09:44:46;4.68;;;2.92;;
53549;SDS011;67273;52.914;-0.982;2023-04-09T09:47:12;3.88;;;2.70;;
53549;SDS011;67273;52.914;-0.982;2023-04-09T09:49:39;3.80;;;2.95;;
53549;SDS011;67273;52.914;-0.982;2023-04-09T09:52:07;3.22;;;2.78;;
53549;SDS011;67273;52.914;-0.982;2023-04-09T09:54:37;3.72;;;2.90;;
53549;SDS011;67273;52.914;-0.982;2023-04-09T09:57:06;2.70;;;2.50;;
53549;SDS011;67273;52.914;-0.982;2023-04-09T09:59:36;3.83;;;3.08;;
53549;SDS011;67273;52.914;-0.982;2023-04-09T10:02:03;4.28;;;2.70;;
53549;SDS011;67273;52.914;-0.982;2023-04-09T10:04:32;3.67;;;2.70;;
53549;SDS011;67273;52.914;-0.982;2023-04-09T10:07:00;3.25;;;2.80;;
53549;SDS011;67273;52.914;-0.982;2023-04-09T10:09:29;3.13;;;2.67;;
53549;SDS011;67273;52.914;-0.982;2023-04-09T10:11:56;5.25;;;2.55;;
53549;SDS011;67273;52.914;-0.982;2023-04-09T10:14:24;5.00;;;3.03;;
53549;SDS011;67273;52.914;-0.982;2023-04-09T10:16:52;3.00;;;2.70;;
53549;SDS011;67273;52.914;-0.982;2023-04-09T10:19:18;2.78;;;2.55;;
53549;SDS011;67273;52.914;-0.982;2023-04-09T10:21:50;2.90;;;2.60;;
53549;SDS011;67273;52.914;-0.982;2023-04-09T10:24:21;2.92;;;2.53;;
53549;SDS011;67273;52.914;-0.982;2023-04-09T10:26:50;3.38;;;3.00;;
53549;SDS011;67273;52.914;-0.982;2023-04-09T10:29:21;3.15;;;2.50;;
53549;SDS011;67273;52.914;-0.982;2023-04-09T10:34:19;2.55;;;2.33;;
53549;SDS011;67273;52.914;-0.982;2023-04-09T10:36:48;4.00;;;2.80;;
53549;SDS011;67273;52.914;-0.982;2023-04-09T10:39:17;3.88;;;2.55;;
53549;SDS011;67273;52.914;-0.982;2023-04-09T10:41:43;3.30;;;2.55;;
53549;SDS011;67273;52.914;-0.982;2023-04-09T10:44:20;2.72;;;2.50;;
53549;SDS011;67273;52.914;-0.982;2023-04-09T10:46:46;3.65;;;2.72;;
53549;SDS011;67273;52.914;-0.982;2023-04-09T10:49:14;3.92;;;2.40;;
53549;SDS011;67273;52.914;-0.982;2023-04-09T10:51:46;4.22;;;2.63;;
53549;SDS011;67273;52.914;-0.982;2023-04-09T10:57:15;2.97;;;2.67;;
53549;SDS011;67273;52.914;-0.982;2023-04-09T10:59:44;3.20;;;2.65;;
53549;SDS011;67273;52.914;-0.982;2023-04-09T11:05:20;4.38;;;2.58;;
53549;SDS011;67273;52.914;-0.982;2023-04-09T11:07:56;2.75;;;2.25;;
53549;SDS011;67273;52.914;-0.982;2023-04-09T11:10:27;2.95;;;2.38;;
53549;SDS011;67273;52.914;-0.982;2023-04-09T11:12:53;2.60;;;2.35;;
53549;SDS011;67273;52.914;-0.982;2023-04-09T11:15:20;3.05;;;2.40;;
53549;SDS011;67273;52.914;-0.982;2023-04-09T11:17:46;2.47;;;2.22;;
53549;SDS011;67273;52.914;-0.982;2023-04-09T11:20:13;2.50;;;2.30;;
53549;SDS011;67273;52.914;-0.982;2023-04-09T11:22:40;3.85;;;2.40;;
53549;SDS011;67273;52.914;-0.982;2023-04-09T11:25:06;3.05;;;2.70;;
53549;SDS011;67273;52.914;-0.982;2023-04-09T11:27:35;2.72;;;2.40;;
53549;SDS011;67273;52.914;-0.982;2023-04-09T11:30:02;3.15;;;2.30;;
53549;SDS011;67273;52.914;-0.982;2023-04-09T11:32:30;2.60;;;2.30;;
53549;SDS011;67273;52.914;-0.982;2023-04-09T11:34:56;2.95;;;2.17;;
53549;SDS011;67273;52.914;-0.982;2023-04-09T11:37:22;2.63;;;2.40;;
53549;SDS011;67273;52.914;-0.982;2023-04-09T11:39:48;3.00;;;2.50;;
53549;SDS011;67273;52.914;-0.982;2023-04-09T11:42:18;2.78;;;2.20;;
53549;SDS011;67273;52.914;-0.982;2023-04-09T11:44:44;3.38;;;2.35;;
53549;SDS011;67273;52.914;-0.982;2023-04-09T11:47:10;2.25;;;2.05;;
53549;SDS011;67273;52.914;-0.982;2023-04-09T11:49:38;2.38;;;2.10;;
53549;SDS011;67273;52.914;-0.982;2023-04-09T11:52:05;2.45;;;2.20;;
53549;SDS011;67273;52.914;-0.982;2023-04-09T11:54:31;2.88;;;2.42;;
53549;SDS011;67273;52.914;-0.982;2023-04-09T11:56:57;2.50;;;1.98;;
53549;SDS011;67273;52.914;-0.982;2023-04-09T11:59:23;2.45;;;2.20;;
53549;SDS011;67273;52.914;-0.982;2023-04-09T12:01:49;2.33;;;2.10;;
53549;SDS011;67273;52.914;-0.982;2023-04-09T12:04:18;3.05;;;2.15;;
53549;SDS011;67273;52.914;-0.982;2023-04-09T12:06:46;2.40;;;2.03;;
53549;SDS011;67273;52.914;-0.982;2023-04-09T12:09:12;2.42;;;2.10;;
53549;SDS011;67273;52.914;-0.982;2023-04-09T12:11:41;2.97;;;2.10;;
53549;SDS011;67273;52.914;-0.982;2023-04-09T12:14:10;2.30;;;1.92;;
53549;SDS011;67273;52.914;-0.982;2023-04-09T12:16:37;2.30;;;2.10;;
53549;SDS011;67273;52.914;-0.982;2023-04-09T12:19:05;2.30;;;2.10;;
53549;SDS011;67273;52.914;-0.982;2023-04-09T12:21:44;2.95;;;2.40;;
53549;SDS011;67273;52.914;-0.982;2023-04-09T12:24:12;2.53;;;2.30;;
53549;SDS011;67273;52.914;-0.982;2023-04-09T12:26:38;2.13;;;1.92;;
53549;SDS011;67273;52.914;-0.982;2023-04-09T12:29:04;2.67;;;2.30;;
53549;SDS011;67273;52.914;-0.982;2023-04-09T12:31:29;2.88;;;2.30;;
53549;SDS011;67273;52.914;-0.982;2023-04-09T12:33:55;2.20;;;2.00;;
53549;SDS011;67273;52.914;-0.982;2023-04-09T12:36:21;2.45;;;2.05;;
53549;SDS011;67273;52.914;-0.982;2023-04-09T12:38:49;2.15;;;1.95;;
53549;SDS011;67273;52.914;-0.982;2023-04-09T12:41:15;2.40;;;1.90;;
53549;SDS011;67273;52.914;-0.982;2023-04-09T12:43:41;2.80;;;2.30;;
53549;SDS011;67273;52.914;-0.982;2023-04-09T12:46:11;3.17;;;2.38;;
53549;SDS011;67273;52.914;-0.982;2023-04-09T12:48:37;2.63;;;1.98;;
53549;SDS011;67273;52.914;-0.982;2023-04-09T12:51:03;2.78;;;2.20;;
53549;SDS011;67273;52.914;-0.982;2023-04-09T12:53:29;2.47;;;2.13;;
53549;SDS011;67273;52.914;-0.982;2023-04-09T12:55:56;2.95;;;2.17;;
53549;SDS011;67273;52.914;-0.982;2023-04-09T12:58:22;2.45;;;2.13;;
53549;SDS011;67273;52.914;-0.982;2023-04-09T13:00:48;2.20;;;2.00;;
53549;SDS011;67273;52.914;-0.982;2023-04-09T13:03:14;2.42;;;2.00;;
53549;SDS011;67273;52.914;-0.982;2023-04-09T13:05:43;2.08;;;1.90;;
53549;SDS011;67273;52.914;-0.982;2023-04-09T13:08:08;2.88;;;2.30;;
53549;SDS011;67273;52.914;-0.982;2023-04-09T13:10:34;2.30;;;2.10;;
53549;SDS011;67273;52.914;-0.982;2023-04-09T13:13:02;2.00;;;1.80;;
53549;SDS011;67273;52.914;-0.982;2023-04-09T13:15:28;2.38;;;2.08;;
53549;SDS011;67273;52.914;-0.982;2023-04-09T13:17:54;2.38;;;2.17;;
53549;SDS011;67273;52.914;-0.982;2023-04-09T13:20:20;2.58;;;1.90;;
53549;SDS011;67273;52.914;-0.982;2023-04-09T13:22:45;2.72;;;2.08;;
53549;SDS011;67273;52.914;-0.982;2023-04-09T13:25:13;3.00;;;2.10;;
53549;SDS011;67273;52.914;-0.982;2023-04-09T13:27:38;2.13;;;1.92;;
53549;SDS011;67273;52.914;-0.982;2023-04-09T13:30:06;2.13;;;1.90;;
53549;SDS011;67273;52.914;-0.982;2023-04-09T13:32:33;2.53;;;2.20;;
53549;SDS011;67273;52.914;-0.982;2023-04-09T13:35:00;2.65;;;1.95;;
53549;SDS011;67273;52.914;-0.982;2023-04-09T13:37:26;2.65;;;1.98;;
53549;SDS011;67273;52.914;-0.982;2023-04-09T13:39:52;2.90;;;2.08;;
53549;SDS011;67273;52.914;-0.982;2023-04-09T13:42:17;2.70;;;1.92;;
53549;SDS011;67273;52.914;-0.982;2023-04-09T13:44:43;2.50;;;2.03;;
53549;SDS011;67273;52.914;-0.982;2023-04-09T13:47:11;2.05;;;1.77;;
53549;SDS011;67273;52.914;-0.982;2023-04-09T13:49:37;2.50;;;2.10;;
53549;SDS011;67273;52.914;-0.982;2023-04-09T13:52:03;2.10;;;1.90;;
53549;SDS011;67273;52.914;-0.982;2023-04-09T13:54:29;1.80;;;1.70;;
53549;SDS011;67273;52.914;-0.982;2023-04-09T13:56:55;2.20;;;2.00;;
53549;SDS011;67273;52.914;-0.982;2023-04-09T13:59:21;1.88;;;1.75;;
53549;SDS011;67273;52.914;-0.982;2023-04-09T14:01:46;2.10;;;1.90;;
53549;SDS011;67273;52.914;-0.982;2023-04-09T14:04:13;2.28;;;1.90;;
53549;SDS011;67273;52.914;-0.982;2023-04-09T14:06:39;1.85;;;1.73;;
53549;SDS011;67273;52.914;-0.982;2023-04-09T14:09:06;1.90;;;1.70;;
53549;SDS011;67273;52.914;-0.982;2023-04-09T14:11:32;2.47;;;1.83;;
53549;SDS011;67273;52.914;-0.982;2023-04-09T14:13:58;2.10;;;1.90;;
53549;SDS011;67273;52.914;-0.982;2023-04-09T14:16:23;1.95;;;1.80;;
53549;SDS011;67273;52.914;-0.982;2023-04-09T14:18:49;1.70;;;1.60;;
53549;SDS011;67273;52.914;-0.982;2023-04-09T14:21:17;2.35;;;1.90;;
53549;SDS011;67273;52.914;-0.982;2023-04-09T14:23:43;1.90;;;1.70;;
53549;SDS011;67273;52.914;-0.982;2023-04-09T14:26:09;1.70;;;1.60;;
53549;SDS011;67273;52.914;-0.982;2023-04-09T14:28:34;2.00;;;1.80;;
53549;SDS011;67273;52.914;-0.982;2023-04-09T14:31:00;2.35;;;2.00;;
53549;SDS011;67273;52.914;-0.982;2023-04-09T14:33:26;1.77;;;1.67;;
53549;SDS011;67273;52.914;-0.982;2023-04-09T14:35:52;1.95;;;1.50;;
53549;SDS011;67273;52.914;-0.982;2023-04-09T14:38:19;1.85;;;1.65;;
53549;SDS011;67273;52.914;-0.982;2023-04-09T14:40:45;2.47;;;1.80;;
53549;SDS011;67273;52.914;-0.982;2023-04-09T14:43:11;1.83;;;1.65;;
53549;SDS011;67273;52.914;-0.982;2023-04-09T14:45:36;1.88;;;1.70;;